sensor_id;sensor_type;location;lat;lon;timestamp;temperature;humidity
52765;DHT22;38650;44.536;18.664;2023-06-14T00:01:45;17.50;94.80
52765;DHT22;38650;44.536;18.664;2023-06-14T00:04:11;17.50;94.80
52765;DHT22;38650;44.536;18.664;2023-06-14T00:06:38;17.50;94.90
52765;DHT22;38650;44.536;18.664;2023-06-14T00:09:03;17.50;95.10
52765;DHT22;38650;44.536;18.664;2023-06-14T00:11:32;17.50;95.00
52765;DHT22;38650;44.536;18.664;2023-06-14T00:13:58;17.50;94.90
52765;DHT22;38650;44.536;18.664;2023-06-14T00:16:24;17.50;95.00
52765;DHT22;38650;44.536;18.664;2023-06-14T00:18:49;17.50;95.10
52765;DHT22;38650;44.536;18.664;2023-06-14T00:21:17;17.40;95.00
52765;DHT22;38650;44.536;18.664;2023-06-14T00:23:42;17.40;95.00
52765;DHT22;38650;44.536;18.664;2023-06-14T00:26:08;17.40;95.00
52765;DHT22;38650;44.536;18.664;2023-06-14T00:28:34;17.30;95.10
52765;DHT22;38650;44.536;18.664;2023-06-14T00:30:59;17.20;95.20
52765;DHT22;38650;44.536;18.664;2023-06-14T00:33:25;17.20;95.40
52765;DHT22;38650;44.536;18.664;2023-06-14T00:35:51;17.20;95.50
52765;DHT22;38650;44.536;18.664;2023-06-14T00:38:19;17.20;95.30
52765;DHT22;38650;44.536;18.664;2023-06-14T00:40:45;17.10;95.50
52765;DHT22;38650;44.536;18.664;2023-06-14T00:43:10;17.00;95.70
52765;DHT22;38650;44.536;18.664;2023-06-14T00:45:36;17.00;95.90
52765;DHT22;38650;44.536;18.664;2023-06-14T00:48:02;17.10;95.80
52765;DHT22;38650;44.536;18.664;2023-06-14T00:50:28;17.10;95.80
52765;DHT22;38650;44.536;18.664;2023-06-14T00:52:55;17.10;95.70
52765;DHT22;38650;44.536;18.664;2023-06-14T00:55:21;17.10;96.10
52765;DHT22;38650;44.536;18.664;2023-06-14T00:57:46;17.00;96.30
52765;DHT22;38650;44.536;18.664;2023-06-14T01:00:12;16.90;96.10
52765;DHT22;38650;44.536;18.664;2023-06-14T01:02:38;16.90;96.40
52765;DHT22;38650;44.536;18.664;2023-06-14T01:05:04;16.90;96.40
52765;DHT22;38650;44.536;18.664;2023-06-14T01:12:37;16.80;96.20
52765;DHT22;38650;44.536;18.664;2023-06-14T01:15:04;16.80;96.40
52765;DHT22;38650;44.536;18.664;2023-06-14T01:17:30;16.80;96.60
52765;DHT22;38650;44.536;18.664;2023-06-14T01:20:03;16.80;96.30
52765;DHT22;38650;44.536;18.664;2023-06-14T01:22:32;16.80;96.40
52765;DHT22;38650;44.536;18.664;2023-06-14T01:24:58;16.70;96.50
52765;DHT22;38650;44.536;18.664;2023-06-14T01:27:23;16.70;96.60
52765;DHT22;38650;44.536;18.664;2023-06-14T01:29:50;16.70;97.00
52765;DHT22;38650;44.536;18.664;2023-06-14T01:32:16;16.80;97.00
52765;DHT22;38650;44.536;18.664;2023-06-14T01:34:43;16.80;96.80
52765;DHT22;38650;44.536;18.664;2023-06-14T01:37:08;16.80;97.10
52765;DHT22;38650;44.536;18.664;2023-06-14T01:39:35;16.90;97.10
52765;DHT22;38650;44.536;18.664;2023-06-14T01:42:01;16.90;97.30
52765;DHT22;38650;44.536;18.664;2023-06-14T01:44:27;17.00;97.20
52765;DHT22;38650;44.536;18.664;2023-06-14T01:46:52;17.00;97.10
52765;DHT22;38650;44.536;18.664;2023-06-14T01:49:18;16.90;97.00
52765;DHT22;38650;44.536;18.664;2023-06-14T01:51:45;17.00;97.10
52765;DHT22;38650;44.536;18.664;2023-06-14T01:54:11;17.00;97.00
52765;DHT22;38650;44.536;18.664;2023-06-14T01:56:36;17.00;97.00
52765;DHT22;38650;44.536;18.664;2023-06-14T01:59:02;17.00;97.20
52765;DHT22;38650;44.536;18.664;2023-06-14T02:01:28;16.90;97.00
52765;DHT22;38650;44.536;18.664;2023-06-14T02:03:53;16.90;97.50
52765;DHT22;38650;44.536;18.664;2023-06-14T02:06:19;16.90;97.80
52765;DHT22;38650;44.536;18.664;2023-06-14T02:08:45;16.80;98.20
52765;DHT22;38650;44.536;18.664;2023-06-14T02:11:10;16.90;98.20
52765;DHT22;38650;44.536;18.664;2023-06-14T02:13:36;16.90;98.00
52765;DHT22;38650;44.536;18.664;2023-06-14T02:16:01;16.90;98.00
52765;DHT22;38650;44.536;18.664;2023-06-14T02:18:27;16.90;97.80
52765;DHT22;38650;44.536;18.664;2023-06-14T02:20:52;16.90;97.20
52765;DHT22;38650;44.536;18.664;2023-06-14T02:23:18;17.00;97.30
52765;DHT22;38650;44.536;18.664;2023-06-14T02:25:44;17.00;97.30
52765;DHT22;38650;44.536;18.664;2023-06-14T02:28:11;17.00;97.60
52765;DHT22;38650;44.536;18.664;2023-06-14T02:30:37;17.00;97.80
52765;DHT22;38650;44.536;18.664;2023-06-14T02:33:02;17.00;97.60
52765;DHT22;38650;44.536;18.664;2023-06-14T02:35:29;17.10;97.90
52765;DHT22;38650;44.536;18.664;2023-06-14T02:37:55;17.10;97.10
52765;DHT22;38650;44.536;18.664;2023-06-14T02:40:20;17.10;96.70
52765;DHT22;38650;44.536;18.664;2023-06-14T02:42:46;17.00;96.60
52765;DHT22;38650;44.536;18.664;2023-06-14T02:45:12;17.00;96.50
52765;DHT22;38650;44.536;18.664;2023-06-14T02:47:37;17.00;96.40
52765;DHT22;38650;44.536;18.664;2023-06-14T02:50:03;17.00;96.50
52765;DHT22;38650;44.536;18.664;2023-06-14T02:52:28;17.00;96.60
52765;DHT22;38650;44.536;18.664;2023-06-14T02:54:54;17.00;96.80
52765;DHT22;38650;44.536;18.664;2023-06-14T02:57:20;17.00;96.90
52765;DHT22;38650;44.536;18.664;2023-06-14T02:59:46;16.90;97.10
52765;DHT22;38650;44.536;18.664;2023-06-14T03:02:11;16.90;97.10
52765;DHT22;38650;44.536;18.664;2023-06-14T03:04:37;16.90;96.70
52765;DHT22;38650;44.536;18.664;2023-06-14T03:07:03;16.90;96.50
52765;DHT22;38650;44.536;18.664;2023-06-14T03:09:35;16.90;96.60
52765;DHT22;38650;44.536;18.664;2023-06-14T03:12:01;16.80;96.80
52765;DHT22;38650;44.536;18.664;2023-06-14T03:14:28;16.80;97.00
52765;DHT22;38650;44.536;18.664;2023-06-14T03:16:54;16.70;97.00
52765;DHT22;38650;44.536;18.664;2023-06-14T03:19:22;16.70;97.00
52765;DHT22;38650;44.536;18.664;2023-06-14T03:21:47;16.70;96.90
52765;DHT22;38650;44.536;18.664;2023-06-14T03:24:14;16.70;97.30
52765;DHT22;38650;44.536;18.664;2023-06-14T03:26:41;16.70;97.20
52765;DHT22;38650;44.536;18.664;2023-06-14T03:29:07;16.60;97.50
52765;DHT22;38650;44.536;18.664;2023-06-14T03:31:33;16.60;97.90
52765;DHT22;38650;44.536;18.664;2023-06-14T03:34:00;16.60;98.10
52765;DHT22;38650;44.536;18.664;2023-06-14T03:36:26;16.60;98.20
52765;DHT22;38650;44.536;18.664;2023-06-14T03:38:51;16.70;98.20
52765;DHT22;38650;44.536;18.664;2023-06-14T03:41:17;16.70;98.20
52765;DHT22;38650;44.536;18.664;2023-06-14T03:43:42;16.80;98.30
52765;DHT22;38650;44.536;18.664;2023-06-14T03:46:08;16.80;98.50
52765;DHT22;38650;44.536;18.664;2023-06-14T03:48:33;16.80;97.90
52765;DHT22;38650;44.536;18.664;2023-06-14T03:50:59;16.80;98.00
52765;DHT22;38650;44.536;18.664;2023-06-14T03:53:24;16.80;98.10
52765;DHT22;38650;44.536;18.664;2023-06-14T03:55:50;16.90;98.10
52765;DHT22;38650;44.536;18.664;2023-06-14T03:58:17;17.00;98.00
52765;DHT22;38650;44.536;18.664;2023-06-14T04:00:43;17.10;98.00
52765;DHT22;38650;44.536;18.664;2023-06-14T04:03:09;17.10;97.60
52765;DHT22;38650;44.536;18.664;2023-06-14T04:05:34;17.20;97.50
52765;DHT22;38650;44.536;18.664;2023-06-14T04:08:01;17.20;97.40
52765;DHT22;38650;44.536;18.664;2023-06-14T04:10:26;17.20;97.40
52765;DHT22;38650;44.536;18.664;2023-06-14T04:12:52;17.20;97.10
52765;DHT22;38650;44.536;18.664;2023-06-14T04:15:18;17.30;97.00
52765;DHT22;38650;44.536;18.664;2023-06-14T04:17:43;17.40;97.20
52765;DHT22;38650;44.536;18.664;2023-06-14T04:20:09;17.40;97.10
52765;DHT22;38650;44.536;18.664;2023-06-14T04:22:35;17.50;97.00
52765;DHT22;38650;44.536;18.664;2023-06-14T04:25:01;17.60;96.40
52765;DHT22;38650;44.536;18.664;2023-06-14T04:27:27;17.60;96.60
52765;DHT22;38650;44.536;18.664;2023-06-14T04:29:56;17.70;96.30
52765;DHT22;38650;44.536;18.664;2023-06-14T04:32:23;17.70;96.00
52765;DHT22;38650;44.536;18.664;2023-06-14T04:34:50;17.80;96.30
52765;DHT22;38650;44.536;18.664;2023-06-14T04:37:19;17.80;96.30
52765;DHT22;38650;44.536;18.664;2023-06-14T04:39:46;17.90;96.40
52765;DHT22;38650;44.536;18.664;2023-06-14T04:42:12;17.90;96.50
52765;DHT22;38650;44.536;18.664;2023-06-14T04:44:42;17.90;96.40
52765;DHT22;38650;44.536;18.664;2023-06-14T04:47:11;18.00;96.10
52765;DHT22;38650;44.536;18.664;2023-06-14T04:49:38;18.00;96.70
52765;DHT22;38650;44.536;18.664;2023-06-14T04:52:03;18.10;96.90
52765;DHT22;38650;44.536;18.664;2023-06-14T04:54:29;18.20;96.50
52765;DHT22;38650;44.536;18.664;2023-06-14T04:56:57;18.20;96.70
52765;DHT22;38650;44.536;18.664;2023-06-14T04:59:22;18.20;96.10
52765;DHT22;38650;44.536;18.664;2023-06-14T05:01:51;18.20;95.60
52765;DHT22;38650;44.536;18.664;2023-06-14T05:04:17;18.30;95.60
52765;DHT22;38650;44.536;18.664;2023-06-14T05:06:44;18.40;96.10
52765;DHT22;38650;44.536;18.664;2023-06-14T05:09:11;18.40;95.60
52765;DHT22;38650;44.536;18.664;2023-06-14T05:11:36;18.50;95.60
52765;DHT22;38650;44.536;18.664;2023-06-14T05:14:02;18.50;95.60
52765;DHT22;38650;44.536;18.664;2023-06-14T05:16:27;18.60;95.40
52765;DHT22;38650;44.536;18.664;2023-06-14T05:18:54;18.60;95.00
52765;DHT22;38650;44.536;18.664;2023-06-14T05:21:20;18.60;94.90
52765;DHT22;38650;44.536;18.664;2023-06-14T05:23:46;18.50;94.80
52765;DHT22;38650;44.536;18.664;2023-06-14T05:26:11;18.60;95.30
52765;DHT22;38650;44.536;18.664;2023-06-14T05:28:37;18.50;95.20
52765;DHT22;38650;44.536;18.664;2023-06-14T05:31:02;18.40;95.50
52765;DHT22;38650;44.536;18.664;2023-06-14T05:33:28;18.30;95.80
52765;DHT22;38650;44.536;18.664;2023-06-14T05:35:54;18.30;95.40
52765;DHT22;38650;44.536;18.664;2023-06-14T05:38:19;18.40;95.20
52765;DHT22;38650;44.536;18.664;2023-06-14T05:40:45;18.50;95.50
52765;DHT22;38650;44.536;18.664;2023-06-14T05:43:10;18.60;96.10
52765;DHT22;38650;44.536;18.664;2023-06-14T05:45:36;18.60;95.80
52765;DHT22;38650;44.536;18.664;2023-06-14T05:48:01;18.50;96.40
52765;DHT22;38650;44.536;18.664;2023-06-14T05:50:27;18.60;96.70
52765;DHT22;38650;44.536;18.664;2023-06-14T05:52:53;18.60;96.40
52765;DHT22;38650;44.536;18.664;2023-06-14T05:55:18;18.70;96.10
52765;DHT22;38650;44.536;18.664;2023-06-14T05:57:44;18.80;96.10
52765;DHT22;38650;44.536;18.664;2023-06-14T06:00:10;18.70;96.20
52765;DHT22;38650;44.536;18.664;2023-06-14T06:02:36;18.80;95.70
52765;DHT22;38650;44.536;18.664;2023-06-14T06:05:02;18.90;95.60
52765;DHT22;38650;44.536;18.664;2023-06-14T06:07:28;19.00;95.50
52765;DHT22;38650;44.536;18.664;2023-06-14T06:09:53;19.10;95.70
52765;DHT22;38650;44.536;18.664;2023-06-14T06:12:19;19.10;95.60
52765;DHT22;38650;44.536;18.664;2023-06-14T06:14:44;19.20;95.10
52765;DHT22;38650;44.536;18.664;2023-06-14T06:17:10;19.20;94.60
52765;DHT22;38650;44.536;18.664;2023-06-14T06:19:36;19.20;94.60
52765;DHT22;38650;44.536;18.664;2023-06-14T06:22:01;19.20;95.60
52765;DHT22;38650;44.536;18.664;2023-06-14T06:24:27;19.20;95.50
52765;DHT22;38650;44.536;18.664;2023-06-14T06:26:52;19.30;94.90
52765;DHT22;38650;44.536;18.664;2023-06-14T06:29:18;19.30;95.10
52765;DHT22;38650;44.536;18.664;2023-06-14T06:31:43;19.30;95.50
52765;DHT22;38650;44.536;18.664;2023-06-14T06:34:10;19.40;96.20
52765;DHT22;38650;44.536;18.664;2023-06-14T06:36:36;19.30;95.80
52765;DHT22;38650;44.536;18.664;2023-06-14T06:39:02;19.40;95.80
52765;DHT22;38650;44.536;18.664;2023-06-14T06:41:34;19.40;96.00
52765;DHT22;38650;44.536;18.664;2023-06-14T06:44:01;19.50;95.50
52765;DHT22;38650;44.536;18.664;2023-06-14T06:46:27;19.60;95.90
52765;DHT22;38650;44.536;18.664;2023-06-14T06:48:53;19.60;96.40
52765;DHT22;38650;44.536;18.664;2023-06-14T06:51:18;19.70;96.20
52765;DHT22;38650;44.536;18.664;2023-06-14T06:53:48;19.80;96.40
52765;DHT22;38650;44.536;18.664;2023-06-14T06:56:17;19.90;96.30
52765;DHT22;38650;44.536;18.664;2023-06-14T06:58:42;20.00;95.20
52765;DHT22;38650;44.536;18.664;2023-06-14T07:01:08;20.00;95.20
52765;DHT22;38650;44.536;18.664;2023-06-14T07:03:34;20.10;95.00
52765;DHT22;38650;44.536;18.664;2023-06-14T07:06:00;20.00;94.70
52765;DHT22;38650;44.536;18.664;2023-06-14T07:08:26;20.10;94.90
52765;DHT22;38650;44.536;18.664;2023-06-14T07:10:52;20.20;94.90
52765;DHT22;38650;44.536;18.664;2023-06-14T07:13:17;20.30;94.30
52765;DHT22;38650;44.536;18.664;2023-06-14T07:15:43;20.40;94.30
52765;DHT22;38650;44.536;18.664;2023-06-14T07:18:09;20.40;94.50
52765;DHT22;38650;44.536;18.664;2023-06-14T07:20:35;20.50;93.90
52765;DHT22;38650;44.536;18.664;2023-06-14T07:23:00;20.50;93.90
52765;DHT22;38650;44.536;18.664;2023-06-14T07:25:26;20.50;94.10
52765;DHT22;38650;44.536;18.664;2023-06-14T07:27:51;20.50;93.50
52765;DHT22;38650;44.536;18.664;2023-06-14T07:30:17;20.50;93.40
52765;DHT22;38650;44.536;18.664;2023-06-14T07:32:43;20.50;93.40
52765;DHT22;38650;44.536;18.664;2023-06-14T07:35:08;20.60;93.30
52765;DHT22;38650;44.536;18.664;2023-06-14T07:37:34;20.60;93.20
52765;DHT22;38650;44.536;18.664;2023-06-14T07:40:00;20.50;94.50
52765;DHT22;38650;44.536;18.664;2023-06-14T07:42:25;20.50;95.40
52765;DHT22;38650;44.536;18.664;2023-06-14T07:44:51;20.60;93.90
52765;DHT22;38650;44.536;18.664;2023-06-14T07:47:18;20.60;93.90
52765;DHT22;38650;44.536;18.664;2023-06-14T07:49:43;20.60;93.40
52765;DHT22;38650;44.536;18.664;2023-06-14T07:52:09;20.70;93.50
52765;DHT22;38650;44.536;18.664;2023-06-14T07:54:34;20.70;93.60
52765;DHT22;38650;44.536;18.664;2023-06-14T07:57:00;20.80;93.60
52765;DHT22;38650;44.536;18.664;2023-06-14T07:59:29;20.90;92.90
52765;DHT22;38650;44.536;18.664;2023-06-14T08:01:57;21.00;92.90
52765;DHT22;38650;44.536;18.664;2023-06-14T08:04:23;21.00;92.60
52765;DHT22;38650;44.536;18.664;2023-06-14T08:06:50;21.10;92.60
52765;DHT22;38650;44.536;18.664;2023-06-14T08:09:16;21.10;92.80
52765;DHT22;38650;44.536;18.664;2023-06-14T08:11:41;21.10;93.40
52765;DHT22;38650;44.536;18.664;2023-06-14T08:14:07;21.10;92.70
52765;DHT22;38650;44.536;18.664;2023-06-14T08:16:33;21.00;93.00
52765;DHT22;38650;44.536;18.664;2023-06-14T08:18:59;21.00;92.80
52765;DHT22;38650;44.536;18.664;2023-06-14T08:21:24;21.10;93.20
52765;DHT22;38650;44.536;18.664;2023-06-14T08:23:57;21.00;93.60
52765;DHT22;38650;44.536;18.664;2023-06-14T08:26:22;21.00;93.30
52765;DHT22;38650;44.536;18.664;2023-06-14T08:28:48;21.10;93.90
52765;DHT22;38650;44.536;18.664;2023-06-14T08:31:14;21.10;93.20
52765;DHT22;38650;44.536;18.664;2023-06-14T08:33:40;21.10;93.60
52765;DHT22;38650;44.536;18.664;2023-06-14T08:36:08;21.10;93.90
52765;DHT22;38650;44.536;18.664;2023-06-14T08:38:34;21.20;93.70
52765;DHT22;38650;44.536;18.664;2023-06-14T08:40:59;21.20;93.50
52765;DHT22;38650;44.536;18.664;2023-06-14T08:43:26;21.20;93.30
52765;DHT22;38650;44.536;18.664;2023-06-14T08:45:53;21.20;93.50
52765;DHT22;38650;44.536;18.664;2023-06-14T08:48:22;21.20;93.40
52765;DHT22;38650;44.536;18.664;2023-06-14T08:50:51;21.20;93.30
52765;DHT22;38650;44.536;18.664;2023-06-14T08:53:19;21.40;93.80
52765;DHT22;38650;44.536;18.664;2023-06-14T08:55:45;21.40;93.50
52765;DHT22;38650;44.536;18.664;2023-06-14T08:58:10;21.40;92.40
52765;DHT22;38650;44.536;18.664;2023-06-14T09:00:39;21.50;92.30
52765;DHT22;38650;44.536;18.664;2023-06-14T09:03:06;21.60;92.90
52765;DHT22;38650;44.536;18.664;2023-06-14T09:05:38;21.70;92.60
52765;DHT22;38650;44.536;18.664;2023-06-14T09:08:04;21.60;92.70
52765;DHT22;38650;44.536;18.664;2023-06-14T09:10:31;21.60;92.60
52765;DHT22;38650;44.536;18.664;2023-06-14T09:13:00;21.70;92.40
52765;DHT22;38650;44.536;18.664;2023-06-14T09:15:28;21.80;92.10
52765;DHT22;38650;44.536;18.664;2023-06-14T09:17:55;21.90;92.60
52765;DHT22;38650;44.536;18.664;2023-06-14T09:20:21;22.00;91.30
52765;DHT22;38650;44.536;18.664;2023-06-14T09:22:48;22.00;91.20
52765;DHT22;38650;44.536;18.664;2023-06-14T09:25:14;22.10;91.00
52765;DHT22;38650;44.536;18.664;2023-06-14T09:27:41;22.20;91.20
52765;DHT22;38650;44.536;18.664;2023-06-14T09:30:08;22.20;90.90
52765;DHT22;38650;44.536;18.664;2023-06-14T09:32:37;22.30;90.80
52765;DHT22;38650;44.536;18.664;2023-06-14T09:35:05;22.40;90.40
52765;DHT22;38650;44.536;18.664;2023-06-14T09:37:31;22.60;90.10
52765;DHT22;38650;44.536;18.664;2023-06-14T09:39:57;22.60;91.70
52765;DHT22;38650;44.536;18.664;2023-06-14T09:42:23;22.60;91.70
52765;DHT22;38650;44.536;18.664;2023-06-14T09:44:51;22.70;91.20
52765;DHT22;38650;44.536;18.664;2023-06-14T09:47:17;22.70;92.00
52765;DHT22;38650;44.536;18.664;2023-06-14T09:49:43;22.70;90.40
52765;DHT22;38650;44.536;18.664;2023-06-14T09:52:16;22.80;90.10
52765;DHT22;38650;44.536;18.664;2023-06-14T09:54:43;22.90;84.80
52765;DHT22;38650;44.536;18.664;2023-06-14T09:57:11;22.90;82.60
52765;DHT22;38650;44.536;18.664;2023-06-14T09:59:37;23.00;82.70
52765;DHT22;38650;44.536;18.664;2023-06-14T10:02:06;23.00;80.90
52765;DHT22;38650;44.536;18.664;2023-06-14T10:04:32;23.10;82.60
52765;DHT22;38650;44.536;18.664;2023-06-14T10:06:59;23.20;80.50
52765;DHT22;38650;44.536;18.664;2023-06-14T10:09:26;23.20;82.00
52765;DHT22;38650;44.536;18.664;2023-06-14T10:11:52;23.30;80.20
52765;DHT22;38650;44.536;18.664;2023-06-14T10:14:18;23.40;77.50
52765;DHT22;38650;44.536;18.664;2023-06-14T10:16:57;23.40;79.60
52765;DHT22;38650;44.536;18.664;2023-06-14T10:19:25;23.40;80.90
52765;DHT22;38650;44.536;18.664;2023-06-14T10:22:03;23.40;80.50
52765;DHT22;38650;44.536;18.664;2023-06-14T10:24:33;23.50;79.60
52765;DHT22;38650;44.536;18.664;2023-06-14T10:26:59;23.60;79.70
52765;DHT22;38650;44.536;18.664;2023-06-14T10:29:28;23.80;79.30
52765;DHT22;38650;44.536;18.664;2023-06-14T10:31:57;23.90;75.70
52765;DHT22;38650;44.536;18.664;2023-06-14T10:34:24;23.90;79.70
52765;DHT22;38650;44.536;18.664;2023-06-14T10:37:00;24.10;78.40
52765;DHT22;38650;44.536;18.664;2023-06-14T10:39:28;24.30;78.70
52765;DHT22;38650;44.536;18.664;2023-06-14T10:41:54;24.50;81.70
52765;DHT22;38650;44.536;18.664;2023-06-14T10:46:46;24.80;78.50
52765;DHT22;38650;44.536;18.664;2023-06-14T10:49:12;24.90;76.70
52765;DHT22;38650;44.536;18.664;2023-06-14T10:51:38;24.80;76.00
52765;DHT22;38650;44.536;18.664;2023-06-14T10:54:14;24.70;76.40
52765;DHT22;38650;44.536;18.664;2023-06-14T10:56:50;24.60;75.80
52765;DHT22;38650;44.536;18.664;2023-06-14T10:59:16;24.50;77.50
52765;DHT22;38650;44.536;18.664;2023-06-14T11:01:49;24.60;77.00
52765;DHT22;38650;44.536;18.664;2023-06-14T11:04:20;24.70;76.20
52765;DHT22;38650;44.536;18.664;2023-06-14T11:06:46;24.60;74.20
52765;DHT22;38650;44.536;18.664;2023-06-14T11:11:57;24.50;78.80
52765;DHT22;38650;44.536;18.664;2023-06-14T11:14:24;24.60;74.90
52765;DHT22;38650;44.536;18.664;2023-06-14T11:16:50;24.60;75.40
52765;DHT22;38650;44.536;18.664;2023-06-14T11:19:16;24.60;75.50
52765;DHT22;38650;44.536;18.664;2023-06-14T11:21:43;24.80;74.50
52765;DHT22;38650;44.536;18.664;2023-06-14T11:24:12;24.90;74.20
52765;DHT22;38650;44.536;18.664;2023-06-14T11:26:37;25.10;74.10
52765;DHT22;38650;44.536;18.664;2023-06-14T11:29:03;25.00;73.60
52765;DHT22;38650;44.536;18.664;2023-06-14T11:31:29;25.30;75.70
52765;DHT22;38650;44.536;18.664;2023-06-14T11:33:55;25.80;75.40
52765;DHT22;38650;44.536;18.664;2023-06-14T11:36:22;26.10;73.50
52765;DHT22;38650;44.536;18.664;2023-06-14T11:38:48;26.20;72.80
52765;DHT22;38650;44.536;18.664;2023-06-14T11:41:13;26.40;73.50
52765;DHT22;38650;44.536;18.664;2023-06-14T11:43:39;26.80;73.50
52765;DHT22;38650;44.536;18.664;2023-06-14T11:46:11;26.70;73.10
52765;DHT22;38650;44.536;18.664;2023-06-14T11:48:38;26.60;70.20
52765;DHT22;38650;44.536;18.664;2023-06-14T11:51:04;26.30;73.00
52765;DHT22;38650;44.536;18.664;2023-06-14T11:53:30;26.40;72.50
52765;DHT22;38650;44.536;18.664;2023-06-14T11:55:56;26.50;71.80
52765;DHT22;38650;44.536;18.664;2023-06-14T11:58:22;26.80;75.00
52765;DHT22;38650;44.536;18.664;2023-06-14T12:00:50;27.20;71.40
52765;DHT22;38650;44.536;18.664;2023-06-14T12:03:16;27.50;72.10
52765;DHT22;38650;44.536;18.664;2023-06-14T12:05:42;27.80;67.90
52765;DHT22;38650;44.536;18.664;2023-06-14T12:08:07;27.60;71.00
52765;DHT22;38650;44.536;18.664;2023-06-14T12:10:39;27.50;68.50
52765;DHT22;38650;44.536;18.664;2023-06-14T12:13:06;27.80;70.70
52765;DHT22;38650;44.536;18.664;2023-06-14T12:15:31;27.80;67.20
52765;DHT22;38650;44.536;18.664;2023-06-14T12:17:57;27.10;67.80
52765;DHT22;38650;44.536;18.664;2023-06-14T12:20:28;26.60;70.30
52765;DHT22;38650;44.536;18.664;2023-06-14T12:22:54;26.60;70.00
52765;DHT22;38650;44.536;18.664;2023-06-14T12:25:34;26.80;70.70
52765;DHT22;38650;44.536;18.664;2023-06-14T12:28:07;27.60;71.50
52765;DHT22;38650;44.536;18.664;2023-06-14T12:30:33;28.30;67.30
52765;DHT22;38650;44.536;18.664;2023-06-14T12:32:59;28.60;67.40
52765;DHT22;38650;44.536;18.664;2023-06-14T12:35:25;28.60;68.60
52765;DHT22;38650;44.536;18.664;2023-06-14T12:37:51;28.80;67.40
52765;DHT22;38650;44.536;18.664;2023-06-14T12:40:16;28.80;64.20
52765;DHT22;38650;44.536;18.664;2023-06-14T12:42:42;28.60;66.10
52765;DHT22;38650;44.536;18.664;2023-06-14T12:45:08;28.90;66.10
52765;DHT22;38650;44.536;18.664;2023-06-14T12:47:34;29.30;67.80
52765;DHT22;38650;44.536;18.664;2023-06-14T12:49:59;29.40;66.50
52765;DHT22;38650;44.536;18.664;2023-06-14T12:52:25;29.70;63.80
52765;DHT22;38650;44.536;18.664;2023-06-14T12:54:50;29.80;63.10
52765;DHT22;38650;44.536;18.664;2023-06-14T12:57:16;30.10;63.40
52765;DHT22;38650;44.536;18.664;2023-06-14T12:59:41;30.30;65.80
52765;DHT22;38650;44.536;18.664;2023-06-14T13:02:11;30.60;62.90
52765;DHT22;38650;44.536;18.664;2023-06-14T13:04:36;30.90;62.10
52765;DHT22;38650;44.536;18.664;2023-06-14T13:07:02;31.20;61.60
52765;DHT22;38650;44.536;18.664;2023-06-14T13:09:28;31.30;61.30
52765;DHT22;38650;44.536;18.664;2023-06-14T13:11:53;31.50;60.60
52765;DHT22;38650;44.536;18.664;2023-06-14T13:14:19;31.40;59.40
52765;DHT22;38650;44.536;18.664;2023-06-14T13:16:44;30.80;57.90
52765;DHT22;38650;44.536;18.664;2023-06-14T13:19:10;30.90;59.90
52765;DHT22;38650;44.536;18.664;2023-06-14T13:21:35;31.10;62.60
52765;DHT22;38650;44.536;18.664;2023-06-14T13:24:01;31.50;59.60
52765;DHT22;38650;44.536;18.664;2023-06-14T13:26:26;31.60;59.00
52765;DHT22;38650;44.536;18.664;2023-06-14T13:28:52;31.20;56.50
52765;DHT22;38650;44.536;18.664;2023-06-14T13:31:17;31.00;57.60
52765;DHT22;38650;44.536;18.664;2023-06-14T13:33:43;31.10;61.10
52765;DHT22;38650;44.536;18.664;2023-06-14T13:36:08;31.00;59.80
52765;DHT22;38650;44.536;18.664;2023-06-14T13:38:35;30.90;56.70
52765;DHT22;38650;44.536;18.664;2023-06-14T13:41:01;31.20;59.00
52765;DHT22;38650;44.536;18.664;2023-06-14T13:43:26;31.30;56.60
52765;DHT22;38650;44.536;18.664;2023-06-14T13:45:52;31.00;57.40
52765;DHT22;38650;44.536;18.664;2023-06-14T13:48:17;30.50;58.60
52765;DHT22;38650;44.536;18.664;2023-06-14T13:50:43;30.40;58.80
52765;DHT22;38650;44.536;18.664;2023-06-14T13:53:09;30.60;58.70
52765;DHT22;38650;44.536;18.664;2023-06-14T13:55:35;30.70;60.60
52765;DHT22;38650;44.536;18.664;2023-06-14T13:58:00;30.90;58.00
52765;DHT22;38650;44.536;18.664;2023-06-14T14:00:26;31.00;56.80
52765;DHT22;38650;44.536;18.664;2023-06-14T14:02:52;30.80;57.40
52765;DHT22;38650;44.536;18.664;2023-06-14T14:05:17;30.50;56.50
52765;DHT22;38650;44.536;18.664;2023-06-14T14:07:43;30.20;57.70
52765;DHT22;38650;44.536;18.664;2023-06-14T14:10:09;30.10;57.00
52765;DHT22;38650;44.536;18.664;2023-06-14T14:12:35;30.10;59.00
52765;DHT22;38650;44.536;18.664;2023-06-14T14:15:00;30.00;58.50
52765;DHT22;38650;44.536;18.664;2023-06-14T14:17:26;30.00;58.30
52765;DHT22;38650;44.536;18.664;2023-06-14T14:19:52;30.00;58.60
52765;DHT22;38650;44.536;18.664;2023-06-14T14:22:17;30.10;58.00
52765;DHT22;38650;44.536;18.664;2023-06-14T14:24:43;30.20;59.20
52765;DHT22;38650;44.536;18.664;2023-06-14T14:27:09;30.20;61.00
52765;DHT22;38650;44.536;18.664;2023-06-14T14:29:35;30.30;58.40
52765;DHT22;38650;44.536;18.664;2023-06-14T14:32:01;30.10;59.50
52765;DHT22;38650;44.536;18.664;2023-06-14T14:34:26;29.50;57.50
52765;DHT22;38650;44.536;18.664;2023-06-14T14:36:52;28.90;57.20
52765;DHT22;38650;44.536;18.664;2023-06-14T14:39:17;28.70;57.90
52765;DHT22;38650;44.536;18.664;2023-06-14T14:41:43;28.50;58.60
52765;DHT22;38650;44.536;18.664;2023-06-14T14:44:08;28.40;58.30
52765;DHT22;38650;44.536;18.664;2023-06-14T14:46:34;28.40;59.60
52765;DHT22;38650;44.536;18.664;2023-06-14T14:49:00;28.10;57.80
52765;DHT22;38650;44.536;18.664;2023-06-14T14:51:25;27.80;59.20
52765;DHT22;38650;44.536;18.664;2023-06-14T14:53:51;27.70;59.00
52765;DHT22;38650;44.536;18.664;2023-06-14T14:56:17;27.60;57.90
52765;DHT22;38650;44.536;18.664;2023-06-14T14:58:42;27.50;58.50
52765;DHT22;38650;44.536;18.664;2023-06-14T15:01:08;27.60;58.80
52765;DHT22;38650;44.536;18.664;2023-06-14T15:03:33;27.50;58.10
52765;DHT22;38650;44.536;18.664;2023-06-14T15:05:59;27.30;59.10
52765;DHT22;38650;44.536;18.664;2023-06-14T15:08:24;27.10;60.10
52765;DHT22;38650;44.536;18.664;2023-06-14T15:10:50;27.10;60.50
52765;DHT22;38650;44.536;18.664;2023-06-14T15:13:16;27.10;60.90
52765;DHT22;38650;44.536;18.664;2023-06-14T15:15:42;27.10;61.20
52765;DHT22;38650;44.536;18.664;2023-06-14T15:18:07;27.10;59.70
52765;DHT22;38650;44.536;18.664;2023-06-14T15:20:34;27.10;59.90